sensor_id;sensor_type;location;lat;lon;timestamp;pressure;altitude;pressure_sealevel;temperature;humidity
11268;BME280;49397;47.474;9.416;2022-07-23T00:01:16;95741.69;;;20.90;75.54
11268;BME280;49397;47.474;9.416;2022-07-23T00:03:41;95750.28;;;20.85;74.56
11268;BME280;49397;47.474;9.416;2022-07-23T00:06:07;95750.09;;;20.75;76.70
11268;BME280;49397;47.474;9.416;2022-07-23T00:08:32;95748.75;;;20.65;76.57
11268;BME280;49397;47.474;9.416;2022-07-23T00:10:58;95730.97;;;20.63;76.54
11268;BME280;49397;47.474;9.416;2022-07-23T00:13:23;95720.28;;;20.58;76.86
11268;BME280;49397;47.474;9.416;2022-07-23T00:15:49;95723.81;;;20.58;77.00
11268;BME280;49397;47.474;9.416;2022-07-23T00:18:14;95715.84;;;20.53;76.06
11268;BME280;49397;47.474;9.416;2022-07-23T00:20:40;95693.75;;;20.50;76.60
11268;BME280;49397;47.474;9.416;2022-07-23T00:23:05;95637.06;;;20.52;77.48
11268;BME280;49397;47.474;9.416;2022-07-23T00:25:31;95609.22;;;20.35;77.80
11268;BME280;49397;47.474;9.416;2022-07-23T00:28:00;95605.25;;;20.32;78.33
11268;BME280;49397;47.474;9.416;2022-07-23T00:30:27;95614.91;;;20.45;76.99
11268;BME280;49397;47.474;9.416;2022-07-23T00:32:56;95605.91;;;20.48;76.44
11268;BME280;49397;47.474;9.416;2022-07-23T00:35:23;95575.97;;;20.47;76.65
11268;BME280;49397;47.474;9.416;2022-07-23T00:37:49;95592.16;;;20.52;76.75
11268;BME280;49397;47.474;9.416;2022-07-23T00:40:15;95609.66;;;20.37;78.14
11268;BME280;49397;47.474;9.416;2022-07-23T00:42:41;95645.66;;;20.25;80.86
11268;BME280;49397;47.474;9.416;2022-07-23T00:45:07;95713.22;;;20.19;80.25
11268;BME280;49397;47.474;9.416;2022-07-23T00:47:33;95794.75;;;19.85;82.73
11268;BME280;49397;47.474;9.416;2022-07-23T00:49:58;95837.56;;;19.83;80.01
11268;BME280;49397;47.474;9.416;2022-07-23T00:52:24;95835.25;;;19.85;79.61
11268;BME280;49397;47.474;9.416;2022-07-23T00:54:49;95803.53;;;19.91;80.18
11268;BME280;49397;47.474;9.416;2022-07-23T00:57:15;95775.25;;;20.13;80.16
11268;BME280;49397;47.474;9.416;2022-07-23T00:59:41;95717.34;;;20.09;81.36
11268;BME280;49397;47.474;9.416;2022-07-23T01:02:07;95654.63;;;20.22;80.63
11268;BME280;49397;47.474;9.416;2022-07-23T01:04:33;95617.97;;;20.18;81.86
11268;BME280;49397;47.474;9.416;2022-07-23T01:06:58;95611.63;;;20.14;80.96
11268;BME280;49397;47.474;9.416;2022-07-23T01:09:25;95616.13;;;20.03;80.56
11268;BME280;49397;47.474;9.416;2022-07-23T01:11:51;95603.25;;;20.10;81.31
11268;BME280;49397;47.474;9.416;2022-07-23T01:14:18;95581.78;;;20.19;80.75
11268;BME280;49397;47.474;9.416;2022-07-23T01:16:45;95546.41;;;20.21;81.46
11268;BME280;49397;47.474;9.416;2022-07-23T01:19:11;95524.00;;;20.23;81.21
11268;BME280;49397;47.474;9.416;2022-07-23T01:21:42;95521.34;;;20.30;81.46
11268;BME280;49397;47.474;9.416;2022-07-23T01:24:09;95502.44;;;20.28;81.05
11268;BME280;49397;47.474;9.416;2022-07-23T01:26:36;95489.34;;;20.22;80.70
11268;BME280;49397;47.474;9.416;2022-07-23T01:29:02;95493.69;;;20.23;80.27
11268;BME280;49397;47.474;9.416;2022-07-23T01:31:28;95481.88;;;20.22;79.96
11268;BME280;49397;47.474;9.416;2022-07-23T01:33:54;95480.75;;;20.27;79.60
11268;BME280;49397;47.474;9.416;2022-07-23T01:36:19;95488.25;;;20.26;79.08
11268;BME280;49397;47.474;9.416;2022-07-23T01:38:45;95491.91;;;20.34;79.23
11268;BME280;49397;47.474;9.416;2022-07-23T01:41:10;95501.75;;;20.35;80.30
11268;BME280;49397;47.474;9.416;2022-07-23T01:43:36;95489.34;;;20.22;80.86
11268;BME280;49397;47.474;9.416;2022-07-23T01:46:01;95482.81;;;20.07;80.86
11268;BME280;49397;47.474;9.416;2022-07-23T01:48:27;95478.03;;;20.04;81.80
11268;BME280;49397;47.474;9.416;2022-07-23T01:50:52;95478.88;;;20.08;82.61
11268;BME280;49397;47.474;9.416;2022-07-23T01:53:18;95464.34;;;20.11;81.76
11268;BME280;49397;47.474;9.416;2022-07-23T01:55:44;95469.22;;;20.18;82.75
11268;BME280;49397;47.474;9.416;2022-07-23T01:58:10;95464.91;;;20.20;81.85
11268;BME280;49397;47.474;9.416;2022-07-23T02:00:35;95470.06;;;20.22;82.45
11268;BME280;49397;47.474;9.416;2022-07-23T02:03:01;95446.50;;;20.24;79.91
11268;BME280;49397;47.474;9.416;2022-07-23T02:05:27;95450.88;;;20.29;80.19
11268;BME280;49397;47.474;9.416;2022-07-23T02:07:54;95458.16;;;20.44;78.67
11268;BME280;49397;47.474;9.416;2022-07-23T02:10:20;95469.25;;;20.47;79.28
11268;BME280;49397;47.474;9.416;2022-07-23T02:12:46;95462.91;;;20.43;77.62
11268;BME280;49397;47.474;9.416;2022-07-23T02:15:11;95464.53;;;20.48;79.34
11268;BME280;49397;47.474;9.416;2022-07-23T02:17:37;95441.94;;;20.35;78.08
11268;BME280;49397;47.474;9.416;2022-07-23T02:20:04;95441.50;;;20.33;79.08
11268;BME280;49397;47.474;9.416;2022-07-23T02:22:30;95435.47;;;20.24;79.87
11268;BME280;49397;47.474;9.416;2022-07-23T02:24:55;95420.94;;;20.27;79.70
11268;BME280;49397;47.474;9.416;2022-07-23T02:27:21;95428.63;;;20.15;78.88
11268;BME280;49397;47.474;9.416;2022-07-23T02:29:47;95427.34;;;20.09;82.38
11268;BME280;49397;47.474;9.416;2022-07-23T02:32:12;95428.03;;;20.02;82.17
11268;BME280;49397;47.474;9.416;2022-07-23T02:34:38;95429.22;;;20.05;80.68
11268;BME280;49397;47.474;9.416;2022-07-23T02:37:03;95431.91;;;19.98;81.00
11268;BME280;49397;47.474;9.416;2022-07-23T02:39:28;95454.34;;;20.00;80.90
11268;BME280;49397;47.474;9.416;2022-07-23T02:41:54;95444.94;;;20.01;80.18
11268;BME280;49397;47.474;9.416;2022-07-23T02:44:19;95442.31;;;20.11;76.79
11268;BME280;49397;47.474;9.416;2022-07-23T02:46:45;95425.13;;;20.18;75.72
11268;BME280;49397;47.474;9.416;2022-07-23T02:49:10;95436.53;;;20.16;78.11
11268;BME280;49397;47.474;9.416;2022-07-23T02:51:36;95456.63;;;19.94;79.65
11268;BME280;49397;47.474;9.416;2022-07-23T02:54:01;95443.06;;;19.82;80.58
11268;BME280;49397;47.474;9.416;2022-07-23T02:56:27;95430.88;;;19.83;79.96
11268;BME280;49397;47.474;9.416;2022-07-23T02:58:52;95441.53;;;19.85;79.41
11268;BME280;49397;47.474;9.416;2022-07-23T03:01:18;95419.88;;;19.83;79.16
11268;BME280;49397;47.474;9.416;2022-07-23T03:03:43;95413.63;;;19.86;80.19
11268;BME280;49397;47.474;9.416;2022-07-23T03:06:09;95406.84;;;19.58;81.69
11268;BME280;49397;47.474;9.416;2022-07-23T03:08:34;95406.63;;;19.43;80.40
11268;BME280;49397;47.474;9.416;2022-07-23T03:11:00;95392.66;;;19.55;80.57
11268;BME280;49397;47.474;9.416;2022-07-23T03:13:25;95398.00;;;19.45;81.12
11268;BME280;49397;47.474;9.416;2022-07-23T03:15:51;95410.13;;;19.40;82.16
11268;BME280;49397;47.474;9.416;2022-07-23T03:18:16;95433.63;;;19.38;82.06
11268;BME280;49397;47.474;9.416;2022-07-23T03:20:42;95431.94;;;19.30;81.84
11268;BME280;49397;47.474;9.416;2022-07-23T03:23:07;95437.06;;;19.31;81.70
11268;BME280;49397;47.474;9.416;2022-07-23T03:25:33;95459.84;;;19.32;81.74
11268;BME280;49397;47.474;9.416;2022-07-23T03:27:58;95469.66;;;19.29;82.75
11268;BME280;49397;47.474;9.416;2022-07-23T03:30:24;95479.13;;;19.32;82.76
11268;BME280;49397;47.474;9.416;2022-07-23T03:32:49;95478.59;;;19.26;82.89
11268;BME280;49397;47.474;9.416;2022-07-23T03:35:15;95497.28;;;19.36;81.64
11268;BME280;49397;47.474;9.416;2022-07-23T03:37:40;95498.53;;;19.39;80.90
11268;BME280;49397;47.474;9.416;2022-07-23T03:40:06;95510.25;;;19.36;80.74
11268;BME280;49397;47.474;9.416;2022-07-23T03:42:32;95533.41;;;19.35;80.64
11268;BME280;49397;47.474;9.416;2022-07-23T03:44:57;95535.03;;;19.36;79.25
11268;BME280;49397;47.474;9.416;2022-07-23T03:47:23;95523.94;;;19.32;80.43
11268;BME280;49397;47.474;9.416;2022-07-23T03:49:48;95516.97;;;19.38;80.07
11268;BME280;49397;47.474;9.416;2022-07-23T03:52:14;95523.28;;;19.39;80.09
11268;BME280;49397;47.474;9.416;2022-07-23T03:54:39;95533.78;;;19.33;80.83
11268;BME280;49397;47.474;9.416;2022-07-23T03:57:05;95532.69;;;19.38;81.25
11268;BME280;49397;47.474;9.416;2022-07-23T03:59:30;95555.94;;;19.40;82.54
11268;BME280;49397;47.474;9.416;2022-07-23T04:01:56;95566.88;;;19.37;81.66
11268;BME280;49397;47.474;9.416;2022-07-23T04:04:21;95566.28;;;19.28;82.60
11268;BME280;49397;47.474;9.416;2022-07-23T04:06:47;95597.00;;;19.30;82.21
11268;BME280;49397;47.474;9.416;2022-07-23T04:09:12;95575.03;;;19.33;81.76
11268;BME280;49397;47.474;9.416;2022-07-23T04:11:38;95551.44;;;19.32;81.17
11268;BME280;49397;47.474;9.416;2022-07-23T04:14:04;95513.38;;;19.34;82.19
11268;BME280;49397;47.474;9.416;2022-07-23T04:16:30;95501.75;;;19.44;83.00
11268;BME280;49397;47.474;9.416;2022-07-23T04:18:57;95519.72;;;19.38;83.46
11268;BME280;49397;47.474;9.416;2022-07-23T04:21:23;95506.16;;;19.49;85.13
11268;BME280;49397;47.474;9.416;2022-07-23T04:23:48;95486.34;;;19.40;85.14
11268;BME280;49397;47.474;9.416;2022-07-23T04:26:14;95468.38;;;19.46;86.32
11268;BME280;49397;47.474;9.416;2022-07-23T04:28:41;95451.56;;;19.51;86.35
11268;BME280;49397;47.474;9.416;2022-07-23T04:31:07;95457.06;;;19.51;85.47
11268;BME280;49397;47.474;9.416;2022-07-23T04:33:32;95462.88;;;19.46;85.75
11268;BME280;49397;47.474;9.416;2022-07-23T04:35:58;95466.34;;;19.43;86.06
11268;BME280;49397;47.474;9.416;2022-07-23T04:38:23;95483.22;;;19.41;86.22
11268;BME280;49397;47.474;9.416;2022-07-23T04:40:49;95476.06;;;19.37;87.79
11268;BME280;49397;47.474;9.416;2022-07-23T04:43:14;95495.59;;;19.51;86.79
11268;BME280;49397;47.474;9.416;2022-07-23T04:45:40;95511.38;;;19.54;84.32
11268;BME280;49397;47.474;9.416;2022-07-23T04:48:05;95531.53;;;19.39;83.24
11268;BME280;49397;47.474;9.416;2022-07-23T04:50:31;95539.44;;;19.40;84.05
11268;BME280;49397;47.474;9.416;2022-07-23T04:52:56;95544.41;;;19.35;85.86
11268;BME280;49397;47.474;9.416;2022-07-23T04:55:22;95568.97;;;19.43;85.26
11268;BME280;49397;47.474;9.416;2022-07-23T04:57:48;95573.59;;;19.39;84.20
11268;BME280;49397;47.474;9.416;2022-07-23T05:00:13;95582.72;;;19.43;84.78
11268;BME280;49397;47.474;9.416;2022-07-23T05:02:39;95583.88;;;19.42;83.91
11268;BME280;49397;47.474;9.416;2022-07-23T05:05:05;95580.34;;;19.42;82.59
11268;BME280;49397;47.474;9.416;2022-07-23T05:07:30;95598.56;;;19.50;84.30
11268;BME280;49397;47.474;9.416;2022-07-23T05:09:56;95592.63;;;19.48;83.38
11268;BME280;49397;47.474;9.416;2022-07-23T05:12:21;95596.84;;;19.42;83.74
11268;BME280;49397;47.474;9.416;2022-07-23T05:14:47;95587.28;;;19.36;84.15
11268;BME280;49397;47.474;9.416;2022-07-23T05:17:12;95610.31;;;19.47;85.07
11268;BME280;49397;47.474;9.416;2022-07-23T05:19:38;95620.16;;;19.48;85.19
11268;BME280;49397;47.474;9.416;2022-07-23T05:22:03;95628.03;;;19.49;83.71
11268;BME280;49397;47.474;9.416;2022-07-23T05:24:29;95636.53;;;19.41;83.89
11268;BME280;49397;47.474;9.416;2022-07-23T05:26:54;95648.41;;;19.45;83.82
11268;BME280;49397;47.474;9.416;2022-07-23T05:29:20;95647.47;;;19.37;83.83
11268;BME280;49397;47.474;9.416;2022-07-23T05:31:45;95655.72;;;19.37;84.13
11268;BME280;49397;47.474;9.416;2022-07-23T05:34:11;95666.81;;;19.41;83.38
11268;BME280;49397;47.474;9.416;2022-07-23T05:36:37;95676.44;;;19.50;81.82
11268;BME280;49397;47.474;9.416;2022-07-23T05:39:03;95676.94;;;19.56;82.86
11268;BME280;49397;47.474;9.416;2022-07-23T05:41:28;95686.41;;;19.58;82.97
11268;BME280;49397;47.474;9.416;2022-07-23T05:43:54;95678.75;;;19.68;84.35
11268;BME280;49397;47.474;9.416;2022-07-23T05:46:20;95678.84;;;19.71;83.98
11268;BME280;49397;47.474;9.416;2022-07-23T05:48:45;95697.88;;;19.80;84.07
11268;BME280;49397;47.474;9.416;2022-07-23T05:51:22;95695.47;;;19.78;84.54
11268;BME280;49397;47.474;9.416;2022-07-23T05:53:48;95700.69;;;19.83;83.47
11268;BME280;49397;47.474;9.416;2022-07-23T05:56:14;95699.59;;;19.88;81.98
11268;BME280;49397;47.474;9.416;2022-07-23T05:58:39;95709.44;;;19.89;81.48
11268;BME280;49397;47.474;9.416;2022-07-23T06:01:05;95694.63;;;19.93;81.71
11268;BME280;49397;47.474;9.416;2022-07-23T06:03:30;95687.06;;;19.90;83.80
11268;BME280;49397;47.474;9.416;2022-07-23T06:05:56;95703.16;;;19.88;81.70
11268;BME280;49397;47.474;9.416;2022-07-23T06:08:21;95713.28;;;19.84;81.59
11268;BME280;49397;47.474;9.416;2022-07-23T06:10:47;95712.56;;;19.87;83.21
11268;BME280;49397;47.474;9.416;2022-07-23T06:13:12;95694.94;;;19.92;83.39
11268;BME280;49397;47.474;9.416;2022-07-23T06:15:38;95699.81;;;19.98;81.22
11268;BME280;49397;47.474;9.416;2022-07-23T06:18:04;95713.66;;;20.02;82.14
11268;BME280;49397;47.474;9.416;2022-07-23T06:20:29;95699.88;;;20.02;80.89
11268;BME280;49397;47.474;9.416;2022-07-23T06:22:55;95691.25;;;20.03;80.87
11268;BME280;49397;47.474;9.416;2022-07-23T06:25:20;95690.53;;;20.06;82.01
11268;BME280;49397;47.474;9.416;2022-07-23T06:27:47;95690.16;;;20.08;80.83
11268;BME280;49397;47.474;9.416;2022-07-23T06:30:13;95697.88;;;20.18;80.98
11268;BME280;49397;47.474;9.416;2022-07-23T06:32:41;95690.34;;;20.15;82.11
11268;BME280;49397;47.474;9.416;2022-07-23T06:35:07;95687.28;;;20.20;81.91
11268;BME280;49397;47.474;9.416;2022-07-23T06:37:32;95673.56;;;20.23;82.20
11268;BME280;49397;47.474;9.416;2022-07-23T06:39:58;95661.69;;;20.19;80.10
11268;BME280;49397;47.474;9.416;2022-07-23T06:42:23;95660.03;;;20.15;79.14
11268;BME280;49397;47.474;9.416;2022-07-23T06:44:49;95649.13;;;20.22;79.25
11268;BME280;49397;47.474;9.416;2022-07-23T06:47:14;95637.75;;;20.23;79.66
11268;BME280;49397;47.474;9.416;2022-07-23T06:49:40;95649.94;;;20.22;78.66
11268;BME280;49397;47.474;9.416;2022-07-23T06:52:07;95653.06;;;20.21;78.93
11268;BME280;49397;47.474;9.416;2022-07-23T06:54:33;95645.59;;;20.21;81.39
11268;BME280;49397;47.474;9.416;2022-07-23T06:56:58;95653.41;;;20.19;81.22
11268;BME280;49397;47.474;9.416;2022-07-23T06:59:24;95683.91;;;20.11;82.19
11268;BME280;49397;47.474;9.416;2022-07-23T07:01:49;95682.91;;;20.00;83.86
11268;BME280;49397;47.474;9.416;2022-07-23T07:04:15;95684.66;;;20.08;83.97
11268;BME280;49397;47.474;9.416;2022-07-23T07:06:40;95685.25;;;20.17;82.32
11268;BME280;49397;47.474;9.416;2022-07-23T07:09:06;95678.94;;;20.16;82.55
11268;BME280;49397;47.474;9.416;2022-07-23T07:11:32;95692.78;;;20.20;82.02
11268;BME280;49397;47.474;9.416;2022-07-23T07:13:57;95693.91;;;20.15;81.16
11268;BME280;49397;47.474;9.416;2022-07-23T07:16:23;95703.84;;;20.23;83.41
11268;BME280;49397;47.474;9.416;2022-07-23T07:18:48;95707.78;;;20.22;80.73
11268;BME280;49397;47.474;9.416;2022-07-23T07:21:14;95704.00;;;20.11;82.39
11268;BME280;49397;47.474;9.416;2022-07-23T07:23:40;95722.59;;;20.14;83.24
11268;BME280;49397;47.474;9.416;2022-07-23T07:26:05;95726.03;;;20.11;83.89
11268;BME280;49397;47.474;9.416;2022-07-23T07:28:31;95724.09;;;20.12;82.88
11268;BME280;49397;47.474;9.416;2022-07-23T07:30:56;95719.31;;;20.50;83.57
11268;BME280;49397;47.474;9.416;2022-07-23T07:33:22;95722.66;;;20.59;82.55
11268;BME280;49397;47.474;9.416;2022-07-23T07:35:47;95727.81;;;20.61;82.21
11268;BME280;49397;47.474;9.416;2022-07-23T07:38:13;95732.00;;;20.32;83.87
11268;BME280;49397;47.474;9.416;2022-07-23T07:40:38;95727.84;;;20.42;83.83
11268;BME280;49397;47.474;9.416;2022-07-23T07:43:04;95735.25;;;20.38;82.80
11268;BME280;49397;47.474;9.416;2022-07-23T07:45:29;95718.66;;;20.79;83.10
11268;BME280;49397;47.474;9.416;2022-07-23T07:47:55;95711.88;;;20.96;80.58
11268;BME280;49397;47.474;9.416;2022-07-23T07:50:21;95708.75;;;20.98;80.13
11268;BME280;49397;47.474;9.416;2022-07-23T07:52:46;95716.50;;;20.92;79.76
11268;BME280;49397;47.474;9.416;2022-07-23T07:55:12;95713.59;;;20.81;80.41
11268;BME280;49397;47.474;9.416;2022-07-23T07:57:38;95714.28;;;20.98;79.01
11268;BME280;49397;47.474;9.416;2022-07-23T08:00:05;95728.41;;;20.73;79.61
11268;BME280;49397;47.474;9.416;2022-07-23T08:05:08;95745.50;;;20.60;81.42
11268;BME280;49397;47.474;9.416;2022-07-23T08:07:34;95739.19;;;20.59;81.92
11268;BME280;49397;47.474;9.416;2022-07-23T08:09:59;95741.78;;;20.94;80.81
11268;BME280;49397;47.474;9.416;2022-07-23T08:12:25;95737.72;;;21.11;78.99
11268;BME280;49397;47.474;9.416;2022-07-23T08:14:50;95740.69;;;21.25;78.07
11268;BME280;49397;47.474;9.416;2022-07-23T08:17:16;95739.56;;;21.03;80.99
11268;BME280;49397;47.474;9.416;2022-07-23T08:19:41;95739.13;;;21.01;76.42
11268;BME280;49397;47.474;9.416;2022-07-23T08:22:07;95732.41;;;20.98;77.07
11268;BME280;49397;47.474;9.416;2022-07-23T08:24:33;95746.38;;;20.86;76.89
11268;BME280;49397;47.474;9.416;2022-07-23T08:26:58;95754.16;;;20.81;77.60
11268;BME280;49397;47.474;9.416;2022-07-23T08:29:24;95740.78;;;20.60;78.31
11268;BME280;49397;47.474;9.416;2022-07-23T08:31:49;95750.41;;;20.70;80.64
11268;BME280;49397;47.474;9.416;2022-07-23T08:34:14;95750.84;;;20.72;81.55
11268;BME280;49397;47.474;9.416;2022-07-23T08:36:40;95756.84;;;20.77;82.54
11268;BME280;49397;47.474;9.416;2022-07-23T08:39:05;95755.72;;;20.82;81.64
11268;BME280;49397;47.474;9.416;2022-07-23T08:41:31;95747.38;;;20.98;80.65
11268;BME280;49397;47.474;9.416;2022-07-23T08:43:58;95748.53;;;20.96;82.08
11268;BME280;49397;47.474;9.416;2022-07-23T08:46:26;95746.06;;;21.14;80.98
11268;BME280;49397;47.474;9.416;2022-07-23T08:48:52;95750.91;;;21.21;80.68
11268;BME280;49397;47.474;9.416;2022-07-23T08:51:19;95742.41;;;21.33;81.19
11268;BME280;49397;47.474;9.416;2022-07-23T08:53:46;95743.63;;;21.35;82.06
11268;BME280;49397;47.474;9.416;2022-07-23T08:56:12;95744.31;;;21.29;82.40
11268;BME280;49397;47.474;9.416;2022-07-23T08:58:38;95746.56;;;21.20;83.14
11268;BME280;49397;47.474;9.416;2022-07-23T09:01:03;95746.78;;;21.34;82.97
11268;BME280;49397;47.474;9.416;2022-07-23T09:03:32;95748.94;;;21.21;83.83
11268;BME280;49397;47.474;9.416;2022-07-23T09:05:58;95732.63;;;21.13;84.00
11268;BME280;49397;47.474;9.416;2022-07-23T09:08:27;95728.81;;;21.21;83.64
11268;BME280;49397;47.474;9.416;2022-07-23T09:11:04;95720.94;;;21.49;82.64
11268;BME280;49397;47.474;9.416;2022-07-23T09:13:40;95719.84;;;21.27;83.41
11268;BME280;49397;47.474;9.416;2022-07-23T09:16:16;95731.16;;;21.19;84.46
11268;BME280;49397;47.474;9.416;2022-07-23T09:26:24;95742.00;;;21.31;84.47
11268;BME280;49397;47.474;9.416;2022-07-23T09:28:56;95754.47;;;21.21;85.19
11268;BME280;49397;47.474;9.416;2022-07-23T09:31:23;95739.41;;;21.71;82.53
11268;BME280;49397;47.474;9.416;2022-07-23T09:33:50;95745.25;;;21.14;78.58
11268;BME280;49397;47.474;9.416;2022-07-23T09:36:15;95761.06;;;20.94;82.70
11268;BME280;49397;47.474;9.416;2022-07-23T09:38:49;95757.41;;;20.86;83.19
11268;BME280;49397;47.474;9.416;2022-07-23T09:41:14;95756.09;;;20.80;84.77
11268;BME280;49397;47.474;9.416;2022-07-23T09:43:40;95754.75;;;20.71;80.29
11268;BME280;49397;47.474;9.416;2022-07-23T09:46:26;95758.50;;;20.59;81.02
11268;BME280;49397;47.474;9.416;2022-07-23T09:48:53;95752.28;;;20.43;83.50
11268;BME280;49397;47.474;9.416;2022-07-23T09:51:20;95758.81;;;20.35;84.35
11268;BME280;49397;47.474;9.416;2022-07-23T09:53:52;95755.50;;;20.26;82.91
11268;BME280;49397;47.474;9.416;2022-07-23T09:56:20;95738.25;;;20.29;82.14
11268;BME280;49397;47.474;9.416;2022-07-23T09:58:46;95739.56;;;20.16;83.54
11268;BME280;49397;47.474;9.416;2022-07-23T10:01:15;95741.19;;;20.02;83.03
11268;BME280;49397;47.474;9.416;2022-07-23T10:03:43;95744.25;;;19.97;83.93
11268;BME280;49397;47.474;9.416;2022-07-23T10:06:12;95738.81;;;19.81;84.20
11268;BME280;49397;47.474;9.416;2022-07-23T10:08:40;95734.66;;;19.72;85.47
11268;BME280;49397;47.474;9.416;2022-07-23T10:11:07;95734.38;;;19.77;84.94
11268;BME280;49397;47.474;9.416;2022-07-23T10:13:33;95723.94;;;19.67;84.30
11268;BME280;49397;47.474;9.416;2022-07-23T10:15:59;95723.66;;;19.72;82.96
11268;BME280;49397;47.474;9.416;2022-07-23T10:18:25;95718.78;;;19.65;83.10
11268;BME280;49397;47.474;9.416;2022-07-23T10:20:51;95725.03;;;19.62;84.01
11268;BME280;49397;47.474;9.416;2022-07-23T10:23:39;95722.44;;;19.69;85.61
11268;BME280;49397;47.474;9.416;2022-07-23T10:37:06;95714.25;;;19.73;86.06
11268;BME280;49397;47.474;9.416;2022-07-23T10:39:34;95713.28;;;19.84;80.41
11268;BME280;49397;47.474;9.416;2022-07-23T10:42:12;95719.41;;;19.93;83.55
11268;BME280;49397;47.474;9.416;2022-07-23T10:44:40;95721.19;;;20.05;82.44
11268;BME280;49397;47.474;9.416;2022-07-23T10:47:09;95721.72;;;20.10;82.91
11268;BME280;49397;47.474;9.416;2022-07-23T10:49:44;95723.16;;;20.23;86.64
11268;BME280;49397;47.474;9.416;2022-07-23T10:52:35;95722.13;;;20.31;88.31
11268;BME280;49397;47.474;9.416;2022-07-23T10:57:27;95730.38;;;20.31;89.10
11268;BME280;49397;47.474;9.416;2022-07-23T11:02:32;95733.91;;;20.51;88.28
11268;BME280;49397;47.474;9.416;2022-07-23T11:05:43;95743.16;;;20.62;87.14
11268;BME280;49397;47.474;9.416;2022-07-23T11:08:10;95745.91;;;21.04;85.60
11268;BME280;49397;47.474;9.416;2022-07-23T11:10:47;95742.00;;;21.31;84.91
11268;BME280;49397;47.474;9.416;2022-07-23T11:24:12;95742.75;;;21.83;81.45
11268;BME280;49397;47.474;9.416;2022-07-23T11:26:48;95746.94;;;21.74;81.11
11268;BME280;49397;47.474;9.416;2022-07-23T11:32:06;95747.06;;;21.55;82.79
11268;BME280;49397;47.474;9.416;2022-07-23T11:37:28;95747.59;;;21.64;81.97
11268;BME280;49397;47.474;9.416;2022-07-23T11:39:54;95734.31;;;21.47;83.08
11268;BME280;49397;47.474;9.416;2022-07-23T11:42:20;95739.81;;;21.43;84.12
11268;BME280;49397;47.474;9.416;2022-07-23T11:44:46;95741.03;;;21.46;83.99
11268;BME280;49397;47.474;9.416;2022-07-23T11:47:12;95726.03;;;21.47;83.69
11268;BME280;49397;47.474;9.416;2022-07-23T11:49:39;95731.63;;;21.50;83.21
11268;BME280;49397;47.474;9.416;2022-07-23T11:52:16;95731.25;;;21.78;81.77
11268;BME280;49397;47.474;9.416;2022-07-23T11:57:24;95737.06;;;21.73;82.71
11268;BME280;49397;47.474;9.416;2022-07-23T11:59:52;95736.03;;;21.55;84.54
11268;BME280;49397;47.474;9.416;2022-07-23T12:02:20;95734.03;;;21.78;83.82
11268;BME280;49397;47.474;9.416;2022-07-23T12:04:48;95724.31;;;21.91;81.78
11268;BME280;49397;47.474;9.416;2022-07-23T12:07:36;95726.19;;;21.83;83.48
11268;BME280;49397;47.474;9.416;2022-07-23T12:10:14;95718.44;;;21.96;78.77
11268;BME280;49397;47.474;9.416;2022-07-23T12:12:49;95717.78;;;22.06;77.37
11268;BME280;49397;47.474;9.416;2022-07-23T12:15:17;95725.16;;;22.28;77.71
11268;BME280;49397;47.474;9.416;2022-07-23T12:17:44;95711.31;;;22.61;79.28
11268;BME280;49397;47.474;9.416;2022-07-23T12:20:14;95724.28;;;22.97;78.00
11268;BME280;49397;47.474;9.416;2022-07-23T12:22:45;95725.94;;;23.05;75.96
11268;BME280;49397;47.474;9.416;2022-07-23T12:25:20;95713.97;;;23.41;75.58
11268;BME280;49397;47.474;9.416;2022-07-23T12:27:56;95720.78;;;23.54;75.01
11268;BME280;49397;47.474;9.416;2022-07-23T12:30:25;95712.22;;;23.77;73.29
11268;BME280;49397;47.474;9.416;2022-07-23T12:32:57;95713.38;;;23.76;73.11
11268;BME280;49397;47.474;9.416;2022-07-23T12:35:29;95708.72;;;23.94;73.25
11268;BME280;49397;47.474;9.416;2022-07-23T12:38:00;95711.72;;;23.61;70.81
11268;BME280;49397;47.474;9.416;2022-07-23T12:40:36;95702.84;;;23.34;72.58
11268;BME280;49397;47.474;9.416;2022-07-23T12:43:08;95705.13;;;23.86;72.17
11268;BME280;49397;47.474;9.416;2022-07-23T12:45:47;95702.75;;;23.85;69.70
11268;BME280;49397;47.474;9.416;2022-07-23T12:53:16;95702.13;;;24.20;68.25
11268;BME280;49397;47.474;9.416;2022-07-23T12:55:43;95696.22;;;24.25;69.39
11268;BME280;49397;47.474;9.416;2022-07-23T12:58:12;95705.75;;;24.52;66.26
11268;BME280;49397;47.474;9.416;2022-07-23T13:05:51;95700.72;;;25.27;66.37
11268;BME280;49397;47.474;9.416;2022-07-23T13:08:17;95700.69;;;25.17;68.56
11268;BME280;49397;47.474;9.416;2022-07-23T13:10:42;95696.34;;;25.02;66.87
11268;BME280;49397;47.474;9.416;2022-07-23T13:13:09;95687.22;;;25.33;65.44
11268;BME280;49397;47.474;9.416;2022-07-23T13:15:35;95693.53;;;25.55;67.41
11268;BME280;49397;47.474;9.416;2022-07-23T13:18:01;95696.34;;;25.12;68.39
11268;BME280;49397;47.474;9.416;2022-07-23T13:20:26;95682.06;;;24.93;66.86
11268;BME280;49397;47.474;9.416;2022-07-23T13:22:51;95692.41;;;25.42;64.47
11268;BME280;49397;47.474;9.416;2022-07-23T13:25:17;95682.47;;;25.51;63.10
11268;BME280;49397;47.474;9.416;2022-07-23T13:27:42;95677.56;;;25.90;60.65
11268;BME280;49397;47.474;9.416;2022-07-23T13:30:08;95670.44;;;25.79;59.24
11268;BME280;49397;47.474;9.416;2022-07-23T13:32:36;95685.56;;;25.71;63.41
11268;BME280;49397;47.474;9.416;2022-07-23T13:35:03;95684.47;;;25.37;65.07
11268;BME280;49397;47.474;9.416;2022-07-23T13:37:29;95681.69;;;25.22;63.80
11268;BME280;49397;47.474;9.416;2022-07-23T13:39:54;95674.03;;;25.79;63.44
11268;BME280;49397;47.474;9.416;2022-07-23T13:42:20;95674.44;;;25.71;61.59
11268;BME280;49397;47.474;9.416;2022-07-23T13:44:45;95672.06;;;25.76;61.65
11268;BME280;49397;47.474;9.416;2022-07-23T13:47:12;95672.50;;;25.50;63.50
11268;BME280;49397;47.474;9.416;2022-07-23T13:49:37;95656.66;;;25.33;63.71
11268;BME280;49397;47.474;9.416;2022-07-23T13:52:04;95651.03;;;25.68;60.94
11268;BME280;49397;47.474;9.416;2022-07-23T13:54:29;95663.16;;;26.20;60.06